createdAt,value
2023-03-23T15:59:48.535Z,100885.94
2023-03-23T16:02:24.361Z,100884.91
2023-03-23T16:04:52.211Z,100873.50
2023-03-23T16:07:23.518Z,100878.22
2023-03-23T16:09:51.172Z,100889.41
2023-03-23T16:12:18.548Z,100880.56
2023-03-23T16:14:45.559Z,100882.75
2023-03-23T16:17:20.635Z,100881.31
2023-03-23T16:19:48.096Z,100887.22
2023-03-23T16:22:16.620Z,100888.25
2023-03-23T16:24:44.319Z,100887.84
2023-03-23T16:27:14.130Z,100883.41
2023-03-23T16:32:14.392Z,100895.72
2023-03-23T16:34:41.348Z,100892.31
2023-03-23T16:37:11.975Z,100892.31
2023-03-23T16:39:38.933Z,100899.47
2023-03-23T16:42:06.195Z,100896.75
2023-03-23T16:44:33.918Z,100900.31
2023-03-23T16:47:01.389Z,100892.16
2023-03-23T16:49:28.442Z,100903.16
2023-03-23T16:51:55.665Z,100905.19
2023-03-23T16:54:23.427Z,100909.03
2023-03-23T16:56:50.771Z,100907.63
2023-03-23T16:59:17.951Z,100913.34
2023-03-23T17:01:45.277Z,100918.22
2023-03-23T17:04:12.434Z,100922.41
2023-03-23T17:06:39.508Z,100918.28
2023-03-23T17:09:07.946Z,100916.00
2023-03-23T17:11:35.354Z,100924.44
2023-03-23T17:14:02.674Z,100923.19
2023-03-23T17:16:29.666Z,100929.22
2023-03-23T17:18:56.832Z,100931.41
2023-03-23T17:21:25.851Z,100924.84
2023-03-23T17:23:53.845Z,100918.16
2023-03-23T17:26:20.916Z,100934.16
2023-03-23T17:28:48.030Z,100934.72
2023-03-23T17:31:15.706Z,100930.88
2023-03-23T17:33:42.823Z,100939.69
2023-03-23T17:36:10.194Z,100940.44
2023-03-23T17:38:37.159Z,100948.69
2023-03-23T17:41:06.441Z,100950.84
2023-03-23T17:43:35.077Z,100956.69
2023-03-23T17:46:02.352Z,100960.69
2023-03-23T17:48:29.382Z,100964.81
2023-03-23T17:51:02.600Z,100966.41
2023-03-23T17:53:32.603Z,100976.09
2023-03-23T17:55:59.842Z,100967.66
2023-03-23T17:58:27.490Z,100968.81
2023-03-23T18:00:56.551Z,100972.75
2023-03-23T18:03:25.596Z,100984.75
2023-03-23T18:05:59.916Z,100981.59
2023-03-23T18:08:28.525Z,100987.44
2023-03-23T18:10:58.629Z,100991.28
2023-03-23T18:13:27.620Z,100994.25
2023-03-23T18:15:56.514Z,100997.34
2023-03-23T18:18:24.997Z,100997.75
2023-03-23T18:21:02.436Z,100997.19
2023-03-23T18:23:33.745Z,100995.88
2023-03-23T18:26:00.882Z,101005.25
2023-03-23T18:28:28.345Z,101004.69
2023-03-23T18:31:02.945Z,101014.06
2023-03-23T18:33:29.964Z,101014.59
2023-03-23T18:36:00.324Z,101020.56
2023-03-23T18:38:29.087Z,101025.66
2023-03-23T18:40:56.054Z,101031.75
2023-03-23T18:43:23.651Z,101029.69
2023-03-23T18:45:56.871Z,101025.91
2023-03-23T18:48:24.680Z,101032.59
2023-03-23T18:50:55.746Z,101034.72
2023-03-23T18:53:23.290Z,101043.22
2023-03-23T18:55:51.337Z,101048.31
2023-03-23T18:58:20.975Z,101044.09
2023-03-23T19:00:50.063Z,101043.03
2023-03-23T19:03:18.863Z,101053.88
2023-03-23T19:05:47.060Z,101050.84
2023-03-23T19:08:14.201Z,101055.91
2023-03-23T19:10:43.260Z,101059.88
2023-03-23T19:13:11.718Z,101058.25
2023-03-23T19:15:40.482Z,101053.75
2023-03-23T19:18:08.571Z,101056.22
2023-03-23T19:23:07.225Z,101056.28
2023-03-23T19:25:34.191Z,101060.81
2023-03-23T19:30:32.633Z,101071.88
2023-03-23T19:32:59.708Z,101073.97
2023-03-23T19:35:27.139Z,101071.38
2023-03-23T19:37:54.122Z,101071.50
2023-03-23T19:40:36.653Z,101078.75
2023-03-23T19:43:08.577Z,101074.81
2023-03-23T19:45:36.356Z,101079.97
2023-03-23T19:48:03.361Z,101075.91
2023-03-23T19:50:31.710Z,101075.03
2023-03-23T19:53:00.548Z,101075.03
2023-03-23T19:55:27.718Z,101078.59
2023-03-23T19:57:55.114Z,101081.78
2023-03-23T20:00:24.416Z,101081.94
2023-03-23T20:02:53.239Z,101084.88
2023-03-23T20:05:20.647Z,101080.47
2023-03-23T20:07:51.650Z,101090.00
2023-03-23T20:10:19.328Z,101098.72
2023-03-23T20:12:46.704Z,101106.94
2023-03-23T20:15:14.121Z,101100.69
2023-03-23T20:17:41.300Z,101102.16
2023-03-23T20:20:10.591Z,101104.22
2023-03-23T20:22:38.245Z,101103.34
2023-03-23T20:25:07.525Z,101114.16
2023-03-23T20:27:37.857Z,101118.81
2023-03-23T20:30:07.502Z,101117.09
2023-03-23T20:32:35.090Z,101120.78
2023-03-23T20:35:09.373Z,101120.38
2023-03-23T20:37:38.386Z,101121.13
2023-03-23T20:40:13.231Z,101128.47
2023-03-23T20:42:44.105Z,101125.91
2023-03-23T20:45:13.102Z,101134.88
2023-03-23T20:47:41.123Z,101131.56
2023-03-23T20:50:10.779Z,101144.28
2023-03-23T20:52:37.879Z,101140.97
2023-03-23T20:55:05.673Z,101141.44
2023-03-23T20:57:34.122Z,101137.25
2023-03-23T21:00:02.396Z,101138.22
2023-03-23T21:02:30.305Z,101135.88
2023-03-23T21:04:58.226Z,101134.41
2023-03-23T21:07:27.742Z,101140.03
2023-03-23T21:09:54.662Z,101136.59
2023-03-23T21:12:22.537Z,101140.50
2023-03-23T21:14:49.631Z,101143.56
2023-03-23T21:17:16.675Z,101144.50
2023-03-23T21:19:44.025Z,101160.91
2023-03-23T21:22:14.565Z,101157.59
2023-03-23T21:24:41.637Z,101153.28
2023-03-23T21:27:08.741Z,101155.13
2023-03-23T21:29:35.731Z,101158.88
2023-03-23T21:32:08.148Z,101160.09
2023-03-23T21:34:37.256Z,101163.75
2023-03-23T21:37:04.510Z,101164.09
2023-03-23T21:39:31.789Z,101162.38
2023-03-23T21:41:59.593Z,101166.16
2023-03-23T21:44:26.717Z,101158.44
2023-03-23T21:46:54.339Z,101159.50
2023-03-23T21:49:21.919Z,101160.28
2023-03-23T21:51:50.042Z,101164.66
2023-03-23T21:54:17.270Z,101157.44
2023-03-23T21:56:44.254Z,101152.06
2023-03-23T21:59:11.465Z,101151.34
2023-03-23T22:01:40.742Z,101151.44
2023-03-23T22:04:08.645Z,101165.13
2023-03-23T22:06:35.862Z,101161.69
2023-03-23T22:09:05.472Z,101161.81
2023-03-23T22:11:33.189Z,101166.44
2023-03-23T22:14:00.483Z,101153.22
2023-03-23T22:16:27.884Z,101152.56
2023-03-23T22:18:58.090Z,101157.22
2023-03-23T22:21:30.936Z,101157.44
2023-03-23T22:24:00.515Z,101157.66
2023-03-23T22:26:28.946Z,101158.75
2023-03-23T22:28:57.214Z,101152.72
2023-03-23T22:31:28.632Z,101157.47
2023-03-23T22:33:57.545Z,101150.38
2023-03-23T22:36:26.746Z,101160.47
2023-03-23T22:38:55.590Z,101165.22
2023-03-23T22:41:26.409Z,101161.91
2023-03-23T22:43:54.010Z,101159.44
2023-03-23T22:46:21.923Z,101153.41
2023-03-23T22:48:49.100Z,101150.00
2023-03-23T22:51:18.276Z,101150.22
2023-03-23T22:53:47.203Z,101147.72
2023-03-23T22:56:14.772Z,101146.97
2023-03-23T22:58:41.841Z,101149.03
2023-03-23T23:01:16.784Z,101145.56
2023-03-23T23:03:44.419Z,101145.78
2023-03-23T23:06:13.795Z,101145.91
2023-03-23T23:08:41.571Z,101158.59
2023-03-23T23:11:12.131Z,101157.88
2023-03-23T23:13:40.984Z,101150.88
2023-03-23T23:16:10.497Z,101157.22
2023-03-23T23:18:40.199Z,101155.50
2023-03-23T23:21:13.220Z,101156.47
2023-03-23T23:23:40.920Z,101154.00
2023-03-23T23:26:09.350Z,101146.97
2023-03-23T23:28:36.870Z,101156.09
2023-03-23T23:31:06.377Z,101158.91
2023-03-23T23:33:33.612Z,101150.28
2023-03-23T23:36:02.359Z,101153.19
2023-03-23T23:38:29.437Z,101156.00
2023-03-23T23:40:56.458Z,101154.38
2023-03-23T23:43:23.557Z,101147.38
2023-03-23T23:45:50.604Z,101146.53
2023-03-23T23:48:18.401Z,101155.56
2023-03-23T23:50:45.677Z,101159.25
2023-03-23T23:53:13.140Z,101157.41
2023-03-23T23:55:40.469Z,101146.88
2023-03-23T23:58:07.613Z,101139.66
